sensor_id;sensor_type;location;lat;lon;timestamp;pressure;altitude;pressure_sealevel;temperature;humidity
13476;BME280;6810;63.824;20.288;2023-03-04T00:00:04;99829.38;;;-0.04;78.33
13476;BME280;6810;63.824;20.288;2023-03-04T00:02:52;99825.25;;;-0.12;78.27
13476;BME280;6810;63.824;20.288;2023-03-04T00:05:39;99832.22;;;-0.11;78.52
13476;BME280;6810;63.824;20.288;2023-03-04T00:08:26;99830.56;;;-0.15;78.05
13476;BME280;6810;63.824;20.288;2023-03-04T00:11:13;99841.13;;;-0.18;78.13
13476;BME280;6810;63.824;20.288;2023-03-04T00:14:00;99847.38;;;-0.22;78.35
13476;BME280;6810;63.824;20.288;2023-03-04T00:16:47;99847.50;;;-0.27;78.31
13476;BME280;6810;63.824;20.288;2023-03-04T00:19:34;99829.41;;;-0.34;77.99
13476;BME280;6810;63.824;20.288;2023-03-04T00:22:21;99845.25;;;-0.39;78.19
13476;BME280;6810;63.824;20.288;2023-03-04T00:25:08;99856.53;;;-0.38;78.31
13476;BME280;6810;63.824;20.288;2023-03-04T00:27:55;99846.22;;;-0.43;78.49
13476;BME280;6810;63.824;20.288;2023-03-04T00:30:42;99849.78;;;-0.45;78.06
13476;BME280;6810;63.824;20.288;2023-03-04T00:33:29;99843.81;;;-0.50;78.33
13476;BME280;6810;63.824;20.288;2023-03-04T00:36:16;99850.88;;;-0.52;78.08
13476;BME280;6810;63.824;20.288;2023-03-04T00:39:03;99843.06;;;-0.54;78.10
13476;BME280;6810;63.824;20.288;2023-03-04T00:41:50;99852.66;;;-0.54;78.22
13476;BME280;6810;63.824;20.288;2023-03-04T00:44:37;99854.44;;;-0.56;77.69
13476;BME280;6810;63.824;20.288;2023-03-04T00:47:24;99865.88;;;-0.59;78.06
13476;BME280;6810;63.824;20.288;2023-03-04T00:50:11;99848.63;;;-0.67;78.17
13476;BME280;6810;63.824;20.288;2023-03-04T00:52:58;99862.50;;;-0.64;78.24
13476;BME280;6810;63.824;20.288;2023-03-04T00:55:46;99837.28;;;-0.66;78.24
13476;BME280;6810;63.824;20.288;2023-03-04T00:58:33;99860.06;;;-0.70;78.17
13476;BME280;6810;63.824;20.288;2023-03-04T01:01:20;99865.38;;;-0.73;78.50
13476;BME280;6810;63.824;20.288;2023-03-04T01:04:07;99862.84;;;-0.76;78.15
13476;BME280;6810;63.824;20.288;2023-03-04T01:06:54;99855.97;;;-0.80;78.40
13476;BME280;6810;63.824;20.288;2023-03-04T01:09:41;99852.63;;;-0.85;77.74
13476;BME280;6810;63.824;20.288;2023-03-04T01:12:28;99856.19;;;-0.87;78.11
13476;BME280;6810;63.824;20.288;2023-03-04T01:15:15;99848.72;;;-1.02;78.25
13476;BME280;6810;63.824;20.288;2023-03-04T01:18:04;99862.50;;;-0.96;77.89
13476;BME280;6810;63.824;20.288;2023-03-04T01:20:51;99866.97;;;-1.01;78.36
13476;BME280;6810;63.824;20.288;2023-03-04T01:23:38;99889.75;;;-1.04;78.42
13476;BME280;6810;63.824;20.288;2023-03-04T01:26:25;99881.19;;;-1.11;78.56
13476;BME280;6810;63.824;20.288;2023-03-04T01:29:13;99864.75;;;-1.16;78.80
13476;BME280;6810;63.824;20.288;2023-03-04T01:32:01;99877.78;;;-1.14;78.09
13476;BME280;6810;63.824;20.288;2023-03-04T01:34:48;99880.44;;;-1.16;78.85
13476;BME280;6810;63.824;20.288;2023-03-04T01:37:35;99877.13;;;-1.22;78.41
13476;BME280;6810;63.824;20.288;2023-03-04T01:40:22;99891.91;;;-1.21;78.41
13476;BME280;6810;63.824;20.288;2023-03-04T01:43:18;99908.50;;;-1.22;78.76
13476;BME280;6810;63.824;20.288;2023-03-04T01:46:08;99902.47;;;-1.26;78.55
13476;BME280;6810;63.824;20.288;2023-03-04T01:48:57;99903.34;;;-1.25;78.38
13476;BME280;6810;63.824;20.288;2023-03-04T01:51:49;99907.75;;;-1.27;78.99
13476;BME280;6810;63.824;20.288;2023-03-04T01:54:37;99923.47;;;-1.29;78.83
13476;BME280;6810;63.824;20.288;2023-03-04T01:57:25;99911.38;;;-1.34;78.60
13476;BME280;6810;63.824;20.288;2023-03-04T02:03:10;99933.06;;;-1.31;79.06
13476;BME280;6810;63.824;20.288;2023-03-04T02:05:58;99925.34;;;-1.35;78.70
13476;BME280;6810;63.824;20.288;2023-03-04T02:08:45;99927.03;;;-1.34;78.48
13476;BME280;6810;63.824;20.288;2023-03-04T02:11:33;99934.06;;;-1.35;78.60
13476;BME280;6810;63.824;20.288;2023-03-04T02:14:21;99879.97;;;-1.69;78.85
13476;BME280;6810;63.824;20.288;2023-03-04T02:17:11;99928.06;;;-1.40;79.18
13476;BME280;6810;63.824;20.288;2023-03-04T02:20:16;99929.84;;;-1.42;78.20
13476;BME280;6810;63.824;20.288;2023-03-04T02:23:53;99953.38;;;-1.43;79.14
13476;BME280;6810;63.824;20.288;2023-03-04T02:26:43;99928.16;;;-1.44;78.60
13476;BME280;6810;63.824;20.288;2023-03-04T02:29:31;99948.19;;;-1.45;79.27
13476;BME280;6810;63.824;20.288;2023-03-04T02:32:18;99941.31;;;-1.47;78.74
13476;BME280;6810;63.824;20.288;2023-03-04T02:35:07;99937.81;;;-1.48;79.16
13476;BME280;6810;63.824;20.288;2023-03-04T02:38:00;99946.56;;;-1.49;78.88
13476;BME280;6810;63.824;20.288;2023-03-04T02:40:48;99943.06;;;-1.49;78.44
13476;BME280;6810;63.824;20.288;2023-03-04T02:43:38;99954.44;;;-1.50;78.72
13476;BME280;6810;63.824;20.288;2023-03-04T02:46:26;99960.59;;;-1.53;79.05
13476;BME280;6810;63.824;20.288;2023-03-04T02:49:13;99941.66;;;-1.62;78.22
13476;BME280;6810;63.824;20.288;2023-03-04T02:52:02;99955.38;;;-1.53;79.06
13476;BME280;6810;63.824;20.288;2023-03-04T02:54:50;99968.44;;;-1.53;79.12
13476;BME280;6810;63.824;20.288;2023-03-04T02:57:37;99961.44;;;-1.52;79.12
13476;BME280;6810;63.824;20.288;2023-03-04T03:00:24;99971.03;;;-1.53;78.60
13476;BME280;6810;63.824;20.288;2023-03-04T03:03:12;99936.66;;;-1.73;78.49
13476;BME280;6810;63.824;20.288;2023-03-04T03:05:59;99981.53;;;-1.54;79.34
13476;BME280;6810;63.824;20.288;2023-03-04T03:08:46;99984.19;;;-1.56;78.61
13476;BME280;6810;63.824;20.288;2023-03-04T03:11:33;99995.47;;;-1.55;78.92
13476;BME280;6810;63.824;20.288;2023-03-04T03:14:21;99985.06;;;-1.58;78.58
13476;BME280;6810;63.824;20.288;2023-03-04T03:17:10;100000.72;;;-1.57;78.56
13476;BME280;6810;63.824;20.288;2023-03-04T03:19:58;100007.72;;;-1.57;79.12
13476;BME280;6810;63.824;20.288;2023-03-04T03:22:46;99989.56;;;-1.65;78.13
13476;BME280;6810;63.824;20.288;2023-03-04T03:25:34;100014.69;;;-1.58;78.46
13476;BME280;6810;63.824;20.288;2023-03-04T03:28:21;99997.44;;;-1.66;78.30
13476;BME280;6810;63.824;20.288;2023-03-04T03:31:08;100017.28;;;-1.58;78.88
13476;BME280;6810;63.824;20.288;2023-03-04T03:33:56;100011.19;;;-1.58;78.56
13476;BME280;6810;63.824;20.288;2023-03-04T03:36:43;100026.00;;;-1.57;79.09
13476;BME280;6810;63.824;20.288;2023-03-04T03:39:29;100026.88;;;-1.58;78.92
13476;BME280;6810;63.824;20.288;2023-03-04T03:42:17;100013.81;;;-1.58;78.54
13476;BME280;6810;63.824;20.288;2023-03-04T03:45:04;100032.09;;;-1.58;78.31
13476;BME280;6810;63.824;20.288;2023-03-04T03:47:54;100029.47;;;-1.58;78.08
13476;BME280;6810;63.824;20.288;2023-03-04T03:50:41;100032.13;;;-1.60;78.14
13476;BME280;6810;63.824;20.288;2023-03-04T03:53:28;100027.81;;;-1.61;78.98
13476;BME280;6810;63.824;20.288;2023-03-04T03:56:15;100033.91;;;-1.62;77.99
13476;BME280;6810;63.824;20.288;2023-03-04T03:59:02;100034.81;;;-1.63;78.44
13476;BME280;6810;63.824;20.288;2023-03-04T04:01:49;100040.94;;;-1.64;77.82
13476;BME280;6810;63.824;20.288;2023-03-04T04:04:36;100048.75;;;-1.64;78.78
13476;BME280;6810;63.824;20.288;2023-03-04T04:07:23;100054.00;;;-1.64;78.72
13476;BME280;6810;63.824;20.288;2023-03-04T04:10:11;100050.53;;;-1.66;77.87
13476;BME280;6810;63.824;20.288;2023-03-04T04:12:57;100046.22;;;-1.67;78.07
13476;BME280;6810;63.824;20.288;2023-03-04T04:15:45;100048.81;;;-1.67;78.43
13476;BME280;6810;63.824;20.288;2023-03-04T04:18:32;100053.22;;;-1.69;77.96
13476;BME280;6810;63.824;20.288;2023-03-04T04:21:19;100062.78;;;-1.69;78.65
13476;BME280;6810;63.824;20.288;2023-03-04T04:24:06;100058.50;;;-1.72;78.11
13476;BME280;6810;63.824;20.288;2023-03-04T04:26:53;100057.66;;;-1.74;78.46
13476;BME280;6810;63.824;20.288;2023-03-04T04:29:40;100066.38;;;-1.75;77.88
13476;BME280;6810;63.824;20.288;2023-03-04T04:32:27;100043.28;;;-1.95;78.10
13476;BME280;6810;63.824;20.288;2023-03-04T04:35:14;100076.91;;;-1.78;77.46
13476;BME280;6810;63.824;20.288;2023-03-04T04:38:01;100085.66;;;-1.81;78.05
13476;BME280;6810;63.824;20.288;2023-03-04T04:40:48;100083.09;;;-1.84;77.58
13476;BME280;6810;63.824;20.288;2023-03-04T04:43:35;100073.56;;;-1.86;77.22
13476;BME280;6810;63.824;20.288;2023-03-04T04:46:22;100073.63;;;-1.89;77.58
13476;BME280;6810;63.824;20.288;2023-03-04T04:49:09;100071.84;;;-1.87;77.62
13476;BME280;6810;63.824;20.288;2023-03-04T04:51:57;100040.09;;;-2.10;77.16
13476;BME280;6810;63.824;20.288;2023-03-04T04:54:44;100089.34;;;-1.92;76.95
13476;BME280;6810;63.824;20.288;2023-03-04T04:57:32;100089.38;;;-1.94;76.45
13476;BME280;6810;63.824;20.288;2023-03-04T05:00:19;100088.53;;;-1.96;76.53
13476;BME280;6810;63.824;20.288;2023-03-04T05:03:06;100083.56;;;-2.09;76.58
13476;BME280;6810;63.824;20.288;2023-03-04T05:05:53;100084.31;;;-2.03;76.41
13476;BME280;6810;63.824;20.288;2023-03-04T05:08:40;100098.28;;;-2.05;76.49
13476;BME280;6810;63.824;20.288;2023-03-04T05:11:27;100094.00;;;-2.09;77.27
13476;BME280;6810;63.824;20.288;2023-03-04T05:14:14;100102.75;;;-2.12;76.94
13476;BME280;6810;63.824;20.288;2023-03-04T05:17:02;100122.81;;;-2.15;75.64
13476;BME280;6810;63.824;20.288;2023-03-04T05:19:49;100112.44;;;-2.20;76.62
13476;BME280;6810;63.824;20.288;2023-03-04T05:22:36;100114.25;;;-2.22;76.54
13476;BME280;6810;63.824;20.288;2023-03-04T05:25:23;100103.84;;;-2.26;75.70
13476;BME280;6810;63.824;20.288;2023-03-04T05:28:10;100107.41;;;-2.30;75.46
13476;BME280;6810;63.824;20.288;2023-03-04T05:31:01;100109.22;;;-2.35;76.30
13476;BME280;6810;63.824;20.288;2023-03-04T05:33:48;100103.31;;;-2.45;75.34
13476;BME280;6810;63.824;20.288;2023-03-04T05:36:35;100116.31;;;-2.42;75.79
13476;BME280;6810;63.824;20.288;2023-03-04T05:39:22;100126.78;;;-2.43;75.55
13476;BME280;6810;63.824;20.288;2023-03-04T05:42:09;100119.88;;;-2.47;75.18
13476;BME280;6810;63.824;20.288;2023-03-04T05:44:56;100119.06;;;-2.51;75.13
13476;BME280;6810;63.824;20.288;2023-03-04T05:47:43;100127.78;;;-2.53;74.67
13476;BME280;6810;63.824;20.288;2023-03-04T05:50:31;100121.78;;;-2.57;74.85
13476;BME280;6810;63.824;20.288;2023-03-04T05:53:18;100130.50;;;-2.59;74.29
13476;BME280;6810;63.824;20.288;2023-03-04T05:56:10;100123.59;;;-2.63;75.22
13476;BME280;6810;63.824;20.288;2023-03-04T05:58:57;100118.50;;;-2.71;75.11
13476;BME280;6810;63.824;20.288;2023-03-04T06:01:45;100127.16;;;-2.70;74.24
13476;BME280;6810;63.824;20.288;2023-03-04T06:04:32;100138.53;;;-2.74;75.35
13476;BME280;6810;63.824;20.288;2023-03-04T06:07:19;100132.47;;;-2.76;73.95
13476;BME280;6810;63.824;20.288;2023-03-04T06:10:07;100149.94;;;-2.80;75.12
13476;BME280;6810;63.824;20.288;2023-03-04T06:12:54;100093.00;;;-3.11;73.78
13476;BME280;6810;63.824;20.288;2023-03-04T06:15:41;100144.81;;;-2.87;74.93
13476;BME280;6810;63.824;20.288;2023-03-04T06:18:28;100148.28;;;-2.88;74.78
13476;BME280;6810;63.824;20.288;2023-03-04T06:21:16;100150.06;;;-2.92;74.91
13476;BME280;6810;63.824;20.288;2023-03-04T06:24:03;100146.63;;;-2.92;73.71
13476;BME280;6810;63.824;20.288;2023-03-04T06:26:50;100151.84;;;-2.94;74.27
13476;BME280;6810;63.824;20.288;2023-03-04T06:29:37;100156.22;;;-2.97;73.17
13476;BME280;6810;63.824;20.288;2023-03-04T06:32:24;100148.41;;;-2.97;73.52
13476;BME280;6810;63.824;20.288;2023-03-04T06:35:11;100151.94;;;-3.00;74.33
13476;BME280;6810;63.824;20.288;2023-03-04T06:37:59;100164.97;;;-3.01;73.09
13476;BME280;6810;63.824;20.288;2023-03-04T06:40:46;100155.41;;;-3.02;74.14
13476;BME280;6810;63.824;20.288;2023-03-04T06:43:33;100157.22;;;-3.04;74.35
13476;BME280;6810;63.824;20.288;2023-03-04T06:46:20;100153.72;;;-3.05;73.91
13476;BME280;6810;63.824;20.288;2023-03-04T06:49:07;100158.09;;;-3.08;74.31
13476;BME280;6810;63.824;20.288;2023-03-04T06:51:54;100158.09;;;-3.07;74.27
13476;BME280;6810;63.824;20.288;2023-03-04T06:54:41;100155.47;;;-3.07;73.40
13476;BME280;6810;63.824;20.288;2023-03-04T06:57:28;100163.31;;;-3.07;74.19
13476;BME280;6810;63.824;20.288;2023-03-04T07:00:16;100167.66;;;-3.07;72.82
13476;BME280;6810;63.824;20.288;2023-03-04T07:03:03;100165.06;;;-3.07;72.79
13476;BME280;6810;63.824;20.288;2023-03-04T07:05:50;100172.00;;;-3.08;73.93
13476;BME280;6810;63.824;20.288;2023-03-04T07:08:37;100172.88;;;-3.07;73.85
13476;BME280;6810;63.824;20.288;2023-03-04T07:11:24;100170.28;;;-3.07;73.71
13476;BME280;6810;63.824;20.288;2023-03-04T07:14:11;100168.50;;;-3.07;73.23
13476;BME280;6810;63.824;20.288;2023-03-04T07:16:58;100169.38;;;-3.06;72.84
13476;BME280;6810;63.824;20.288;2023-03-04T07:19:45;100169.38;;;-3.06;73.29
13476;BME280;6810;63.824;20.288;2023-03-04T07:22:32;100153.81;;;-3.11;72.77
13476;BME280;6810;63.824;20.288;2023-03-04T07:25:19;100105.59;;;-3.45;73.39
13476;BME280;6810;63.824;20.288;2023-03-04T07:28:06;100168.47;;;-3.04;72.77
13476;BME280;6810;63.824;20.288;2023-03-04T07:30:53;100169.34;;;-3.03;72.98
13476;BME280;6810;63.824;20.288;2023-03-04T07:33:40;100172.81;;;-3.01;72.55
13476;BME280;6810;63.824;20.288;2023-03-04T07:36:27;100171.03;;;-3.01;73.31
13476;BME280;6810;63.824;20.288;2023-03-04T07:39:14;100178.81;;;-2.98;72.67
13476;BME280;6810;63.824;20.288;2023-03-04T07:42:01;100166.69;;;-3.00;73.27
13476;BME280;6810;63.824;20.288;2023-03-04T07:44:56;100169.22;;;-2.94;73.61
13476;BME280;6810;63.824;20.288;2023-03-04T07:47:43;100174.41;;;-2.91;73.44
13476;BME280;6810;63.824;20.288;2023-03-04T07:50:30;100170.91;;;-2.90;72.40
13476;BME280;6810;63.824;20.288;2023-03-04T07:53:17;100171.75;;;-2.88;72.40
13476;BME280;6810;63.824;20.288;2023-03-04T07:56:06;100172.59;;;-2.86;73.30
13476;BME280;6810;63.824;20.288;2023-03-04T07:58:53;100175.16;;;-2.83;72.67
13476;BME280;6810;63.824;20.288;2023-03-04T08:01:41;100174.28;;;-2.82;73.04
13476;BME280;6810;63.824;20.288;2023-03-04T08:04:28;100180.34;;;-2.80;73.32
13476;BME280;6810;63.824;20.288;2023-03-04T08:07:15;100193.34;;;-2.77;73.37
13476;BME280;6810;63.824;20.288;2023-03-04T08:10:02;100185.50;;;-2.76;72.26
13476;BME280;6810;63.824;20.288;2023-03-04T08:12:49;100188.94;;;-2.74;72.37
13476;BME280;6810;63.824;20.288;2023-03-04T08:15:40;100194.13;;;-2.71;73.03
13476;BME280;6810;63.824;20.288;2023-03-04T08:18:28;100192.34;;;-2.70;73.19
13476;BME280;6810;63.824;20.288;2023-03-04T08:21:16;100191.47;;;-2.68;72.62
13476;BME280;6810;63.824;20.288;2023-03-04T08:24:07;100202.72;;;-2.66;73.29
13476;BME280;6810;63.824;20.288;2023-03-04T08:26:54;100196.63;;;-2.63;73.16
13476;BME280;6810;63.824;20.288;2023-03-04T08:29:41;100186.16;;;-2.60;73.04
13476;BME280;6810;63.824;20.288;2023-03-04T08:32:28;100119.72;;;-2.96;72.69
13476;BME280;6810;63.824;20.288;2023-03-04T08:35:15;100194.78;;;-2.58;73.05
13476;BME280;6810;63.824;20.288;2023-03-04T08:38:02;100192.16;;;-2.55;73.37
13476;BME280;6810;63.824;20.288;2023-03-04T08:40:54;100197.34;;;-2.52;73.20
13476;BME280;6810;63.824;20.288;2023-03-04T08:43:42;100205.97;;;-2.50;72.45
13476;BME280;6810;63.824;20.288;2023-03-04T08:46:30;100205.13;;;-2.49;72.98
13476;BME280;6810;63.824;20.288;2023-03-04T08:49:17;100200.75;;;-2.49;73.19
13476;BME280;6810;63.824;20.288;2023-03-04T08:52:05;100161.06;;;-2.70;72.06
13476;BME280;6810;63.824;20.288;2023-03-04T08:54:52;100192.88;;;-2.46;72.34
13476;BME280;6810;63.824;20.288;2023-03-04T08:57:39;100196.34;;;-2.45;72.04
13476;BME280;6810;63.824;20.288;2023-03-04T09:00:26;100187.63;;;-2.44;73.31
13476;BME280;6810;63.824;20.288;2023-03-04T09:03:15;100188.47;;;-2.42;72.21
13476;BME280;6810;63.824;20.288;2023-03-04T09:06:03;100182.41;;;-2.43;72.48
13476;BME280;6810;63.824;20.288;2023-03-04T09:08:50;100192.78;;;-2.40;72.28
13476;BME280;6810;63.824;20.288;2023-03-04T09:11:37;100197.13;;;-2.37;72.52
13476;BME280;6810;63.824;20.288;2023-03-04T09:14:24;100190.13;;;-2.37;72.96
13476;BME280;6810;63.824;20.288;2023-03-04T09:17:11;100191.84;;;-2.34;72.23
13476;BME280;6810;63.824;20.288;2023-03-04T09:19:58;100169.41;;;-2.47;73.21
13476;BME280;6810;63.824;20.288;2023-03-04T09:22:45;100183.09;;;-2.30;72.76
13476;BME280;6810;63.824;20.288;2023-03-04T09:25:33;100183.94;;;-2.28;73.18
13476;BME280;6810;63.824;20.288;2023-03-04T09:28:19;100174.41;;;-2.32;73.41
13476;BME280;6810;63.824;20.288;2023-03-04T09:31:11;100185.59;;;-2.24;72.88
13476;BME280;6810;63.824;20.288;2023-03-04T09:33:59;100176.94;;;-2.28;72.85
13476;BME280;6810;63.824;20.288;2023-03-04T09:36:46;100187.25;;;-2.19;72.75
13476;BME280;6810;63.824;20.288;2023-03-04T09:39:33;100186.31;;;-2.15;71.91
13476;BME280;6810;63.824;20.288;2023-03-04T09:42:34;100182.81;;;-2.14;72.33
13476;BME280;6810;63.824;20.288;2023-03-04T09:45:38;100171.50;;;-2.13;73.08
13476;BME280;6810;63.824;20.288;2023-03-04T09:48:38;100171.47;;;-2.11;73.29
13476;BME280;6810;63.824;20.288;2023-03-04T09:51:56;100188.53;;;-1.91;72.53
13476;BME280;6810;63.824;20.288;2023-03-04T09:57:59;100185.63;;;-1.74;73.42
13476;BME280;6810;63.824;20.288;2023-03-04T10:01:02;100158.84;;;-1.85;73.11
13476;BME280;6810;63.824;20.288;2023-03-04T10:03:56;100182.72;;;-1.56;72.86
13476;BME280;6810;63.824;20.288;2023-03-04T10:06:46;100179.91;;;-1.45;73.26
13476;BME280;6810;63.824;20.288;2023-03-04T10:12:49;100183.00;;;-1.25;72.43
13476;BME280;6810;63.824;20.288;2023-03-04T10:15:41;100174.09;;;-1.17;73.22
13476;BME280;6810;63.824;20.288;2023-03-04T10:18:33;100170.38;;;-1.07;72.56
13476;BME280;6810;63.824;20.288;2023-03-04T10:21:29;100171.91;;;-0.95;73.18
13476;BME280;6810;63.824;20.288;2023-03-04T10:24:19;100171.75;;;-0.88;72.72
13476;BME280;6810;63.824;20.288;2023-03-04T10:27:11;100173.25;;;-0.78;73.29
13476;BME280;6810;63.824;20.288;2023-03-04T10:30:01;100167.00;;;-0.69;73.07
13476;BME280;6810;63.824;20.288;2023-03-04T10:32:48;100160.69;;;-0.61;72.82
13476;BME280;6810;63.824;20.288;2023-03-04T10:35:35;100151.88;;;-0.57;72.75
13476;BME280;6810;63.824;20.288;2023-03-04T10:38:24;100153.38;;;-0.47;72.46
13476;BME280;6810;63.824;20.288;2023-03-04T10:41:17;100160.13;;;-0.37;72.70
13476;BME280;6810;63.824;20.288;2023-03-04T10:46:57;100148.41;;;-0.21;71.98
13476;BME280;6810;63.824;20.288;2023-03-04T10:49:53;100149.09;;;-0.13;73.06
13476;BME280;6810;63.824;20.288;2023-03-04T10:52:46;100151.50;;;-0.05;72.65
13476;BME280;6810;63.824;20.288;2023-03-04T10:55:42;100149.56;;;0.03;72.23
13476;BME280;6810;63.824;20.288;2023-03-04T10:58:29;100098.47;;;-0.13;72.50
13476;BME280;6810;63.824;20.288;2023-03-04T11:01:16;100142.16;;;0.19;72.35
13476;BME280;6810;63.824;20.288;2023-03-04T11:04:15;100098.94;;;0.03;72.19
13476;BME280;6810;63.824;20.288;2023-03-04T11:07:09;100146.94;;;0.37;72.28
13476;BME280;6810;63.824;20.288;2023-03-04T11:13:16;100097.25;;;0.34;72.14
13476;BME280;6810;63.824;20.288;2023-03-04T11:16:05;100136.53;;;0.66;72.31
13476;BME280;6810;63.824;20.288;2023-03-04T11:19:15;100127.50;;;0.76;72.57
13476;BME280;6810;63.824;20.288;2023-03-04T11:22:04;100122.91;;;0.84;72.41
13476;BME280;6810;63.824;20.288;2023-03-04T11:24:57;100138.31;;;0.94;71.80
13476;BME280;6810;63.824;20.288;2023-03-04T11:27:47;100138.94;;;1.04;72.46
13476;BME280;6810;63.824;20.288;2023-03-04T11:30:47;100136.03;;;1.13;72.51
13476;BME280;6810;63.824;20.288;2023-03-04T11:33:54;100127.78;;;1.25;72.29
13476;BME280;6810;63.824;20.288;2023-03-04T11:40:07;100126.31;;;1.44;72.18
13476;BME280;6810;63.824;20.288;2023-03-04T11:43:05;100135.63;;;1.54;72.16
13476;BME280;6810;63.824;20.288;2023-03-04T11:55:27;100124.75;;;1.92;71.67
13476;BME280;6810;63.824;20.288;2023-03-04T12:04:39;100122.97;;;2.19;71.67
13476;BME280;6810;63.824;20.288;2023-03-04T12:11:11;100124.28;;;2.32;71.36
13476;BME280;6810;63.824;20.288;2023-03-04T12:14:36;100122.31;;;2.38;71.19
13476;BME280;6810;63.824;20.288;2023-03-04T12:17:32;100117.59;;;2.46;70.64
13476;BME280;6810;63.824;20.288;2023-03-04T12:20:44;100098.53;;;2.41;70.48
13476;BME280;6810;63.824;20.288;2023-03-04T12:26:59;100116.00;;;2.67;69.81
13476;BME280;6810;63.824;20.288;2023-03-04T12:33:00;100122.56;;;2.78;69.83
13476;BME280;6810;63.824;20.288;2023-03-04T12:42:36;100113.09;;;2.97;69.90
13476;BME280;6810;63.824;20.288;2023-03-04T12:45:46;100105.97;;;3.01;70.05
13476;BME280;6810;63.824;20.288;2023-03-04T12:48:40;100105.84;;;3.04;69.29
13476;BME280;6810;63.824;20.288;2023-03-04T12:51:44;100095.16;;;3.08;68.92
13476;BME280;6810;63.824;20.288;2023-03-04T12:54:39;100093.22;;;3.12;68.92
13476;BME280;6810;63.824;20.288;2023-03-04T12:57:27;100090.47;;;3.15;68.54
13476;BME280;6810;63.824;20.288;2023-03-04T13:10:28;100038.66;;;2.94;68.32
13476;BME280;6810;63.824;20.288;2023-03-04T13:13:42;100089.28;;;3.23;68.08
13476;BME280;6810;63.824;20.288;2023-03-04T13:16:40;100073.72;;;3.17;68.99
13476;BME280;6810;63.824;20.288;2023-03-04T13:19:50;100076.88;;;3.27;68.75
13476;BME280;6810;63.824;20.288;2023-03-04T13:25:34;100072.31;;;3.30;68.91
13476;BME280;6810;63.824;20.288;2023-03-04T13:28:23;100069.56;;;3.33;67.77
13476;BME280;6810;63.824;20.288;2023-03-04T13:31:16;100036.06;;;3.15;68.42
13476;BME280;6810;63.824;20.288;2023-03-04T13:34:04;100078.16;;;3.38;67.72
13476;BME280;6810;63.824;20.288;2023-03-04T13:36:55;100075.41;;;3.41;68.10
13476;BME280;6810;63.824;20.288;2023-03-04T13:39:42;100076.19;;;3.43;68.09
13476;BME280;6810;63.824;20.288;2023-03-04T13:42:41;100072.56;;;3.46;67.46
13476;BME280;6810;63.824;20.288;2023-03-04T13:45:34;100071.59;;;3.48;68.20
13476;BME280;6810;63.824;20.288;2023-03-04T13:48:30;100067.06;;;3.52;67.11
13476;BME280;6810;63.824;20.288;2023-03-04T13:54:28;100062.47;;;3.57;67.49
13476;BME280;6810;63.824;20.288;2023-03-04T13:57:18;100064.19;;;3.58;66.59
13476;BME280;6810;63.824;20.288;2023-03-04T14:00:11;100065.00;;;3.60;67.48
13476;BME280;6810;63.824;20.288;2023-03-04T14:03:12;100068.44;;;3.62;66.91
13476;BME280;6810;63.824;20.288;2023-03-04T14:06:21;100063.94;;;3.64;67.08
13476;BME280;6810;63.824;20.288;2023-03-04T14:09:14;100064.81;;;3.65;66.56
13476;BME280;6810;63.824;20.288;2023-03-04T14:12:03;100063.88;;;3.66;66.51
13476;BME280;6810;63.824;20.288;2023-03-04T14:14:53;100077.03;;;3.66;67.64
13476;BME280;6810;63.824;20.288;2023-03-04T14:17:45;100060.41;;;3.65;66.99
13476;BME280;6810;63.824;20.288;2023-03-04T14:20:38;100059.53;;;3.65;67.72
13476;BME280;6810;63.824;20.288;2023-03-04T14:23:29;100078.84;;;3.65;67.52
13476;BME280;6810;63.824;20.288;2023-03-04T14:26:17;100072.75;;;3.63;66.06
13476;BME280;6810;63.824;20.288;2023-03-04T14:29:28;100066.88;;;3.56;65.92
13476;BME280;6810;63.824;20.288;2023-03-04T14:32:15;100071.97;;;3.61;65.84
13476;BME280;6810;63.824;20.288;2023-03-04T14:35:05;100062.47;;;3.57;66.03
13476;BME280;6810;63.824;20.288;2023-03-04T14:40:54;100069.69;;;3.52;66.37
13476;BME280;6810;63.824;20.288;2023-03-04T14:46:59;100062.16;;;3.43;66.94
13476;BME280;6810;63.824;20.288;2023-03-04T14:49:51;100058.72;;;3.41;66.03
13476;BME280;6810;63.824;20.288;2023-03-04T14:52:40;100071.00;;;3.42;65.67
13476;BME280;6810;63.824;20.288;2023-03-04T14:55:28;100070.25;;;3.38;65.69
13476;BME280;6810;63.824;20.288;2023-03-04T14:58:30;100073.88;;;3.36;66.52
13476;BME280;6810;63.824;20.288;2023-03-04T15:01:22;100030.06;;;3.12;66.01
13476;BME280;6810;63.824;20.288;2023-03-04T15:04:18;100064.44;;;3.30;66.03
13476;BME280;6810;63.824;20.288;2023-03-04T15:07:14;100053.28;;;3.24;66.08
13476;BME280;6810;63.824;20.288;2023-03-04T15:10:05;100067.25;;;3.26;66.85
13476;BME280;6810;63.824;20.288;2023-03-04T15:12:55;100060.31;;;3.23;66.43
13476;BME280;6810;63.824;20.288;2023-03-04T15:15:44;100064.03;;;3.18;66.14
13476;BME280;6810;63.824;20.288;2023-03-04T15:18:32;100054.56;;;3.14;66.71
13476;BME280;6810;63.824;20.288;2023-03-04T15:24:07;100055.59;;;3.10;65.71
13476;BME280;6810;63.824;20.288;2023-03-04T15:26:54;100068.75;;;3.10;66.36
13476;BME280;6810;63.824;20.288;2023-03-04T15:29:42;100070.66;;;3.06;66.08
13476;BME280;6810;63.824;20.288;2023-03-04T15:32:30;100070.75;;;3.03;65.84
13476;BME280;6810;63.824;20.288;2023-03-04T15:35:18;100062.19;;;2.98;66.60
13476;BME280;6810;63.824;20.288;2023-03-04T15:38:07;100069.28;;;2.96;66.40
13476;BME280;6810;63.824;20.288;2023-03-04T15:40:54;100073.81;;;2.93;67.14
13476;BME280;6810;63.824;20.288;2023-03-04T15:43:41;100071.22;;;2.91;66.27
13476;BME280;6810;63.824;20.288;2023-03-04T15:46:28;100061.91;;;2.83;67.44
13476;BME280;6810;63.824;20.288;2023-03-04T15:49:15;100075.00;;;2.84;66.13
13476;BME280;6810;63.824;20.288;2023-03-04T15:52:04;100071.69;;;2.79;67.36
13476;BME280;6810;63.824;20.288;2023-03-04T15:54:51;100075.28;;;2.77;66.37
13476;BME280;6810;63.824;20.288;2023-03-04T15:57:38;100077.25;;;2.72;66.87
13476;BME280;6810;63.824;20.288;2023-03-04T16:00:25;100080.00;;;2.69;66.94
13476;BME280;6810;63.824;20.288;2023-03-04T16:03:18;100071.34;;;2.65;67.39
13476;BME280;6810;63.824;20.288;2023-03-04T16:06:08;100079.41;;;2.61;67.29
13476;BME280;6810;63.824;20.288;2023-03-04T16:08:57;100080.44;;;2.57;66.72